• Join FlightAware (Why Join?)
  • Login
  • US Flag 
04:14AM EDT


 

Airport Tracker/Info


-or-


 

Live Flight TrackerFlight Track Log ✈ AMF1032 ✈ 18-Feb-2014 ✈ KIMT - KIWD

Flight Track Log - Related Links

Times and Time Zones

All times are in EST time to prevent confusion due to time zone crossing. See the AMF1032 flight status page for this flight to view local times or setup timezone preferences in your user account.

Time Position Orientation Groundspeed Altitude Reporting Facility
EST Latitude Longitude Course Direction KTS MPH feet Rate Location/Type
09:14AM 45.8786 -88.2292 291° West 146 168 5,800  Level Minneapolis Center
09:15AM 45.8967 -88.2836 295° West 150 173 7,500 1,740 Climbing Minneapolis Center
09:16AM 45.9142 -88.3347 296° West 144 166 9,400 1,560 Climbing Minneapolis Center
09:17AM 45.9336 -88.3864 298° West 145 167 10,800 1,260 Climbing Minneapolis Center
09:18AM 45.9539 -88.4414 298° West 153 176 12,000 540 Climbing Minneapolis Center
09:19AM 45.9778 -88.5117 296° West 191 220 12,000  Level Minneapolis Center
09:20AM 46.0067 -88.5836 300° West 207 238 12,100  Climbing Minneapolis Center
09:21AM 46.0339 -88.6611 297° West 215 247 12,000  Descending Minneapolis Center
09:22AM 46.0658 -88.7539 296° West 216 249 12,100  Climbing Minneapolis Center
09:23AM 46.0919 -88.8303 296° West 214 246 12,100 -60 Level Minneapolis Center
09:24AM 46.1167 -88.9081 295° West 215 247 12,000  Descending Minneapolis Center
09:25AM 46.1436 -88.9836 297° West 213 245 12,100  Climbing Minneapolis Center
09:26AM 46.1722 -89.0558 300° West 209 241 12,100  Level Minneapolis Center
09:27AM 46.1947 -89.1331 293° West 210 242 12,100 -360 Level Minneapolis Center
09:28AM 46.2228 -89.2322 292° West 228 262 11,400 -840 Descending Minneapolis Center
09:29AM 46.2528 -89.3192 297° West 243 280 10,400 -1,020 Descending Minneapolis Center
09:30AM 46.2850 -89.4025 299° West 241 277 9,400 -960 Descending Minneapolis Center
09:31AM 46.3156 -89.4869 298° West 238 274 8,500 -1,080 Descending Minneapolis Center
09:32AM 46.3483 -89.5697 300° West 237 273 7,300 -1,260 Descending Minneapolis Center
09:34AM 46.3844 -89.6481 304° West 237 273 6,000 -1,380 Descending Minneapolis Center
09:35AM 46.4239 -89.7439 301° West 234 269 4,500 -1,200 Descending Minneapolis Center
09:36AM 46.4567 -89.8219 301° West 230 265 3,600 -780 Descending Minneapolis Center
09:37AM 46.4889 -89.8883 305° West 218 251 3,000 -420 Descending Minneapolis Center
09:38AM 46.5153 -89.9531 301° West 201 231 2,800 -180 Descending Minneapolis Center
09:39AM 46.5311 -90.0133 291° West 178 205 2,700 -300 Descending Minneapolis Center
09:40AM 46.5300 -90.0708 268° West 156 180 2,200 -540 Descending Minneapolis Center